Yasser Al-Dosari

Chefscout - Al-Nassr
10 Sep 2028
Sonntag
Verarbeitung

Persönlichkeit

Anpassungsfähigkeit (7) Ehrgeiz (10) Kontroverse (3) Loyalität (8) Druck (12) Professionalität (11) Fairness (13) Temperament (13)

Profil

Trainerstil Demokratisch
Lizenz Kontinentale Pro
Entschlossenheit 9
Menschenführung 11
Motivation 8
Disziplin 12
Arbeitszufriedenheit
60%
Ermüdung
0%
Rolle Chefscout
Gehalt 25.4K p/W
Vertrag 14.03.2030

Leistung

Verhalten Gut
Trainingseffektivität
30%
Spielerentwicklung
25%
Verletzungsprävention
50%
Taktische Umsetzung
45%

Letzte Ereignisse

Nahm an einer Scouting-Besprechung teil jetzt
Nahm an einer Scouting-Besprechung teil 7T her
Empfahl ein Transferziel 7T her
Empfahl ein Transferziel 7T her
Nahm an einer Scouting-Besprechung teil 14T her
Empfahl ein Transferziel 14T her
Empfahl ein Transferziel 14T her
Empfahl ein Transferziel 21T her

Aktuell beobachtet

195
Spieler Verein Status Fähigkeit Vertrauen Beobachtet Zuletzt beobachtet Letzte Stimme
Basel Medhat Smouha Verhandlung 107 / 108 40% 2 17.07.2028 -
Daniel Banjaqui Benfica Aktiv 122 / 131 40% 7 17.07.2028 -
Josh Nichols Oldham Athletic Aktiv 121 / 125 40% 7 17.07.2028 -
Augusto Bando Ascoli Verloren 107 / 121 40% 1 28.06.2028 -
Gideon Manaseh Ikorodu City Aktiv 86 / 91 40% 1 28.06.2028 -
Nicolò Moranduzzo Renate Aktiv 87 / 102 40% 2 27.06.2028 -
Lucas Camejo River Plate Aktiv 86 / 96 40% 1 27.06.2028 -
Máximo Munarriz San Telmo Aktiv 87 / 114 40% 2 26.06.2028 -
Makar Vysochenko Spartak Moscow Aktiv 93 / 100 40% 3 12.06.2028 -
Andrea Cogoni Cosenza Verloren 116 / 117 40% 2 12.06.2028 -
Martim Cunha Porto Aktiv 105 / 111 40% 5 02.06.2028 -
Kiani Inge Groningen Aktiv 117 / 122 40% 3 31.05.2028 -
Noahkai Banks FC Augsburg Aktiv 148 / 146 40% 3 30.05.2028 -
Andrey Ivlev Nizhniy Novgorod Aktiv 109 / 117 40% 1 29.05.2028 -
Khama Mabunda Platinum Stars Aktiv 85 / 77 40% 1 29.05.2028 -
Omar Tharwat Arab Contractors Aktiv 88 / 86 40% 3 27.05.2028 -
Miguel Figueiredo Benfica Aktiv 119 / 132 40% 4 26.05.2028 -
Abubakar Adams Aduana Stars Aktiv 74 / 91 40% 2 26.05.2028 -
Giovanni Leoni Lincoln City Aktiv 134 / 148 40% 3 22.05.2028 -
Amine Boukamir Charleroi Aktiv 106 / 111 40% 2 22.05.2028 -
Jan Bürger Northampton Town Aktiv 115 / 128 40% 2 21.05.2028 -
Artem Nosachev Spartak Moscow Aktiv 87 / 88 40% 8 20.05.2028 -
Olivier Leroux Mouscron Aktiv 101 / 110 40% 1 20.05.2028 -
Federico Matarán Giana Erminio Aktiv 98 / 117 40% 2 18.05.2028 -
Riquelme Thompson-Jones Accrington Stanley Aktiv 116 / 115 40% 4 17.05.2028 -
Musa Danjuma Umraniyespor Aktiv 102 / 101 40% 1 12.05.2028 -
Bence Szakos Aris Aktiv 94 / 99 40% 2 10.05.2028 -
Tyler Fletcher Rotherham United Aktiv 109 / 119 40% 2 08.05.2028 -
Ahmed Zaki Masr El Makasa Aktiv 88 / 76 40% 2 08.05.2028 -
Trey Nyoni Rotherham United Aktiv 141 / 141 40% 1 06.05.2028 -
Mohamed El Sayed Smouha Aktiv 91 / 90 40% 4 01.05.2028 -
Tobiáš Pališčák Zlin Aktiv 97 / 105 40% 1 20.04.2028 -
Jorthy Mokio ADO Den Haag Aktiv 132 / 139 40% 5 19.04.2028 -
Mohamed Bendary ENPPI Aktiv 92 / 94 40% 3 17.04.2028 -
Moustapha Sémbène Al-Taawoun Aktiv 115 / 111 40% 1 10.04.2028 -
Matvey Bardachev Zenit Aktiv 102 / 112 40% 3 08.04.2028 -
Fares Fakhri ENPPI Aktiv 101 / 97 40% 1 07.04.2028 -
Christos Mouzakitis Hull City Aktiv 131 / 146 40% 1 10.03.2028 -
Nour Ashraf ENPPI Aktiv 100 / 97 40% 3 08.03.2028 -
Nicolas Sport Recife Aktiv 110 / 115 40% 1 06.03.2028 -
Alessio Insignito Spezia Aktiv 107 / 115 40% 1 11.02.2028 -
Jon Esenga IF Elfsborg Aktiv 96 / 103 40% 1 08.02.2028 -
Olivier Mambwa Young Boys Aktiv 108 / 116 40% 1 08.02.2028 -
Harbor Miller LA Galaxy Aktiv 107 / 102 40% 1 07.02.2028 -
Abdulrahman Al-Obaid Damac Aktiv 93 / 95 69% 1 17.01.2028 Befürworten
Sindre Walle Egeli Udinese Aktiv 138 / 139 40% 1 17.01.2028 -
Juan Manuel Villalba Tigre Aktiv 120 / 126 40% 4 01.01.2028 -
Pablo Lúcio St. Gallen Aktiv 113 / 115 40% 1 31.12.2027 -
Valentino Huertas Morón Aktiv 109 / 115 40% 3 30.12.2027 -
Eli Junior Kroupi Bournemouth Aktiv 140 / 145 40% 2 29.12.2027 -
Kerim Alajbegović Modena Aktiv 136 / 136 40% 4 29.12.2027 -
Matija Popović Fakel Aktiv 117 / 119 40% 2 28.12.2027 -
Alex Verón Vélez Aktiv 108 / 125 40% 3 28.12.2027 -
Luighi Palmeiras Aktiv 121 / 119 40% 2 26.12.2027 -
Gastón Bouhier Argentinos Juniors Aktiv 109 / 115 40% 1 26.12.2027 -
Victor Hernandez Santa Fe Aktiv 114 / 127 40% 19 25.12.2027 -
Cole Campbell Borussia Dortmund Aktiv 124 / 132 40% 3 24.12.2027 -
Pedro Baltika Aktiv 143 / 139 40% 2 24.12.2027 -
Konta Ismaily Aktiv 102 / 111 40% 5 23.12.2027 -
Tiago Gordillo San Miguel Aktiv 94 / 99 40% 5 22.12.2027 -
Honest Ahanor Atalanta Aktiv 132 / 139 40% 3 22.12.2027 -
Olívio Tomé Benfica Aktiv 114 / 125 40% 3 21.12.2027 -
Edison Gruezo Guadalajara Aktiv 109 / 110 40% 2 20.12.2027 -
Bernardo Lima Porto Aktiv 103 / 116 40% 5 17.12.2027 -
Gorka Gorosabel Real Sociedad Aktiv 109 / 115 40% 2 17.12.2027 -
Matias Siltanen Malmo FF Aktiv 115 / 122 40% 2 16.12.2027 -
Arkhip Kazantsev Angusht Aktiv 92 / 90 40% 1 16.12.2027 -
Tobi Ige Bendel Insurance Aktiv 87 / 97 40% 1 15.12.2027 -
Shea Lacey Crystal Palace Aktiv 126 / 136 40% 3 14.12.2027 -
Gabriel Mec Feirense Aktiv 132 / 128 40% 2 14.12.2027 -
Lander Astiazarán Real Sociedad Aktiv 109 / 120 40% 1 13.12.2027 -
Ulises Giménez River Plate Aktiv 123 / 118 40% 1 13.12.2027 -
Ezra Mayers West Ham United Aktiv 119 / 129 40% 3 11.12.2027 -
Mateo Caballero Defensor Sporting Aktiv 101 / 108 40% 2 09.12.2027 -
Eyad Medhat Al Ahly Aktiv 96 / 97 40% 1 09.12.2027 -
Ibrahim El Nagaawy ENPPI Aktiv 100 / 101 40% 1 07.12.2027 -
Igor Felisberto Sport Recife Aktiv 98 / 110 40% 1 06.12.2027 -
Joel Ezra Enyimba Aktiv 107 / 107 40% 3 05.12.2027 -
Julian Hall Real Salt Lake Aktiv 100 / 115 40% 2 03.12.2027 -
Björn Hedlöf Helsingborg Aktiv 84 / 94 40% 4 01.12.2027 -
Colin Guske Orlando City Aktiv 89 / 107 40% 1 30.11.2027 -
Santiago Cuellar Central Norte Aktiv 85 / 90 40% 2 28.11.2027 -
Alphadjo Cissé Lecce Aktiv 131 / 131 40% 1 28.11.2027 -
Baba N'Diaye Chaika Aktiv 89 / 94 40% 1 26.11.2027 -
Ramiro Jara Racing Aktiv 89 / 97 40% 1 25.11.2027 -
Ousseynou Seck Randers Aktiv 104 / 115 40% 1 24.11.2027 -
Piero Cari Alianza Lima Aktiv 87 / 109 40% 5 15.11.2027 -
Tahiel Peralta Racing Club Aktiv 99 / 128 40% 2 14.11.2027 -
Leonel Jaime River Plate Aktiv 117 / 126 40% 2 14.11.2027 -
Julián Bragado Morón Aktiv 73 / 81 40% 4 12.11.2027 -
Malick Yalcouyé Brighton Aktiv 128 / 138 40% 4 10.11.2027 -
Luciano Strey Patronato Aktiv 94 / 98 40% 1 09.11.2027 -
Diego Vargas Universidad de Concepcion Aktiv 92 / 94 40% 4 05.11.2027 -
Samuel Martín Millonarios Aktiv 107 / 121 40% 1 03.11.2027 -
Omer Farooq Nasim Al Wasl Aktiv 82 / 86 40% 1 29.10.2027 -
Tiago Esidín Ferro Carril Oeste Aktiv 108 / 101 40% 2 28.10.2027 -
Lennart Karl TSG Hoffenheim Aktiv 136 / 145 40% 1 27.10.2027 -
Josh Torquato FC Dallas Aktiv 98 / 90 40% 1 26.10.2027 -
Ethan Wheatley Manchester United Aktiv 105 / 125 40% 1 23.10.2027 -
Tobias Moi Lillestrom Aktiv 92 / 113 40% 3 19.10.2027 -
Mads Abrahamsen Zenit Penza Aktiv 92 / 97 40% 1 19.10.2027 -
Matías Canedo Rampla Juniors Aktiv 73 / 83 40% 2 18.10.2027 -
Leon Grgić Werder Bremen Aktiv 133 / 134 40% 1 16.10.2027 -
Matías Arias Vélez Aktiv 111 / 120 40% 1 14.10.2027 -
Roger Fernandes Galatasaray Aktiv 139 / 145 40% 1 14.10.2027 -
Fábio Jaló Barnsley Aktiv 101 / 105 40% 1 12.10.2027 -
Gianluca Prestianni Benfica Aktiv 143 / 139 40% 1 10.10.2027 -
Gonçalo Moreira Benfica Aktiv 125 / 123 40% 2 07.10.2027 -
Onuorah Onyedika Kun Khalifat Aktiv 85 / 82 40% 1 07.10.2027 -
Didier Dawson Envigado Aktiv 105 / 101 40% 1 03.10.2027 -
Sebastián Flores Ferro Carril Oeste Aktiv 90 / 109 40% 1 01.10.2027 -
Eliás Montiel Borussia Dortmund Aktiv 127 / 144 40% 3 20.09.2027 -
Arnau Pradas Al Wahda Aktiv 91 / 111 40% 1 19.09.2027 -
Momodou Jatta Al Jazira Aktiv 99 / 107 40% 1 14.09.2027 -
Juan David Sánchez Caracas Aktiv 86 / 106 40% 1 13.09.2027 -
Mirza Ćatović VfB Stuttgart Aktiv 121 / 125 40% 1 10.09.2027 -
Ahmed Abdin Wisla Krakow Aktiv 101 / 100 40% 1 10.09.2027 -
Juan Diego Perdomo Depor Aktiv 100 / 98 40% 2 09.09.2027 -
Ivan Borges Defensores Aktiv 97 / 94 40% 1 09.09.2027 -
Lautaro Dufur Juventud Aktiv 107 / 103 40% 2 08.09.2027 -
Alejandro Vergaz Mirandés Aktiv 87 / 95 40% 1 06.09.2027 -
Mirko Bruno Vélez Aktiv 108 / 116 40% 1 06.09.2027 -
Dylan Lawlor Cardiff City Aktiv 114 / 131 40% 1 05.09.2027 -
Bendito Mantato Manchester United Aktiv 101 / 113 40% 1 03.09.2027 -
José Cavadia Aguilas Doradas Aktiv 117 / 110 40% 1 03.09.2027 -
Andrés Cuenca Como Aktiv 109 / 119 40% 1 03.09.2027 -
Mohamed Bolivar Barranquilla Aktiv 83 / 99 40% 1 02.09.2027 -
Felipe Pujol Vélez Aktiv 111 / 117 40% 1 02.09.2027 -
Niccolò Fortini Fiorentina Aktiv 136 / 137 40% 1 30.08.2027 -
Celías Ingenthron Platense Aktiv 102 / 120 40% 1 19.08.2027 -
Sascha Britschgi AC Milan Aktiv 130 / 124 40% 1 18.08.2027 -
Joe Johnson Luton Town Aktiv 108 / 103 40% 2 09.08.2027 -
Madallah Al-Olayan Al-Ettifaq Aktiv 107 / 112 62% 1 12.07.2027 Befürworten
Charlie Gray Fleetwood Town Aktiv 85 / 98 40% 3 29.05.2027 -
Adam Boufandar Pro Vercelli Aktiv 83 / 88 40% 3 28.05.2027 -
Hosea Michael Remo Stars Aktiv 86 / 98 40% 1 28.05.2027 -
Bence Dárdai VfL Wolfsburg Aktiv 129 / 140 40% 3 27.05.2027 -
Leandro Martins Benfica Aktiv 87 / 94 40% 1 21.05.2027 -
Nadir Yakoubi JS Kabylie Aktiv 68 / 93 40% 2 17.05.2027 -
Kazunari Kita Real Sociedad Aktiv 100 / 99 40% 1 08.05.2027 -
Riley Owen Stevenage Aktiv 93 / 112 40% 1 07.05.2027 -
Bade Aluko Leicester City Aktiv 110 / 118 40% 1 06.05.2027 -
Rhys Walters Port Vale Aktiv 105 / 102 40% 2 01.05.2027 -
Lucas Agazzi Villarreal Aktiv 127 / 123 40% 1 25.04.2027 -
David Ozoh Derby County Aktiv 111 / 122 40% 3 23.04.2027 -
Fabian Merién PSV Aktiv 99 / 122 40% 1 20.04.2027 -
Gady Beyuku Blackburn Rovers Aktiv 108 / 126 40% 1 17.04.2027 -
Gonçalo Oliveira Benfica Aktiv 109 / 111 40% 2 14.04.2027 -
Bonheur Mugisha Al-Hazem Aktiv 100 / 107 40% 2 10.04.2027 -
Ilyas Ansah Hull City Aktiv 134 / 129 40% 3 10.04.2027 -
Younes El Bahraoui Al-Taawoun Aktiv 113 / 113 40% 2 07.04.2027 -
Eivind Helland AC Milan Aktiv 133 / 138 40% 1 06.04.2027 -
Crysencio Summerville Al-Hilal Aktiv 153 / 140 40% 5 02.04.2027 -
Maxim Radchenko Rostov Aktiv 75 / 83 40% 2 02.04.2027 -
Jaygo van Ommeren Utrecht Aktiv 95 / 121 40% 1 02.04.2027 -
Lucas Mbamba Westerlo Aktiv 86 / 94 40% 1 22.03.2027 -
Kirill Glazunov Zenit Aktiv 86 / 80 40% 1 22.03.2027 -
Rashid Al-Salem Al-Mojzel Aktiv 95 / 110 40% 1 19.03.2027 -
Abdulaziz Al-Harbi Al-Hazem Aktiv 108 / 94 40% 1 17.03.2027 -
Norbert Barczak Korona Aktiv 89 / 94 40% 1 17.03.2027 -
Samuele di Benedetto Twente Aktiv 109 / 119 40% 1 15.03.2027 -
Khalid Al-Ghannam Al-Ettifaq Verloren 123 / 121 40% 5 10.03.2027 Beobachten
Hammam Al-Hammami Al-Shabab Aktiv 120 / 108 40% 1 05.03.2027 -
Ruslan Apekov Torpedo Moscow Aktiv 106 / 100 40% 1 03.03.2027 -
Aboubacar Doumbia Al-Orobah Aktiv 115 / 109 40% 2 10.02.2027 -
Ahmed Al-Nakhli Al-Hazem Aktiv 116 / 111 40% 2 07.02.2027 -
Muhannad Al-Shanqiti Al-Ittihad Aktiv 129 / 116 40% 2 06.02.2027 -
Turki Al-Ammar Al-Qadisiyah Aktiv 121 / 123 40% 3 05.02.2027 -
Dion Lopy Al-Ittihad Aktiv 136 / 121 40% 5 02.02.2027 -
Ronaldo Vásquez Sumgayit Aktiv 125 / 110 40% 1 17.12.2026 -
Rubens Dinamo Moscow Aktiv 137 / 130 40% 2 16.12.2026 -
Yacine Adli Al-Shabab Aktiv 133 / 133 40% 3 15.12.2026 -
Musab Al-Juwayr Al-Qadisiyah Aktiv 131 / 123 40% 2 06.12.2026 -
Aleksa Janković Sumgayit Aktiv 106 / 115 40% 1 01.12.2026 -
Reda Khadra Qarabag Aktiv 127 / 132 40% 3 23.11.2026 -
Mihai Lixandru Al-Fateh Aktiv 115 / 117 40% 1 23.11.2026 -
Johnly Yfeko Exeter City Aktiv 106 / 111 40% 1 19.11.2026 -
Radhi Al-Otaibi Al-Ettifaq Aktiv 105 / 114 40% 1 15.11.2026 -
Manu Morlanes Mallorca Aktiv 128 / 139 40% 1 13.11.2026 -
Nikita Krivtsov Krasnodar Aktiv 130 / 130 40% 1 13.11.2026 -
Baron Ochieng Zamalek Aktiv 75 / 92 40% 1 04.11.2026 -
Tyrhys Dolan Espanyol Aktiv 146 / 134 40% 1 24.10.2026 -
Danil Glebov Dinamo Moscow Aktiv 128 / 128 40% 1 23.10.2026 -
Bassam Al-Hurayji Al-Taawoun Aktiv 109 / 103 40% 1 16.10.2026 -
Lechi Sadulaev Akhmat Grozny Aktiv 122 / 127 40% 1 16.10.2026 -
Zaydou Youssouf Al-Fateh Aktiv 120 / 130 40% 1 12.10.2026 -
Nabil Alioui Al-Hilal Aktiv 112 / 106 40% 1 19.09.2026 -
Lucas Souto Defensa y Justicia Aktiv 134 / 120 40% 1 14.09.2026 -
Christian Larotonda Caracas Aktiv 119 / 116 40% 1 12.09.2026 -
Andrei Cordea CFR Cluj Aktiv 116 / 114 40% 1 10.09.2026 -
Mariano Bracamonte Deportivo Riestra Aktiv 134 / 111 40% 1 10.09.2026 -
Santiago Luján Huracán Aktiv 125 / 106 40% 1 08.09.2026 -
Ollie Watkins Al-Hilal Aktiv 158 / 148 40% 1 24.08.2026 -
Federico Martínez MFK Ruzomberok Aktiv 114 / 112 40% 1 24.08.2026 -
Santiago González Sporting Cristal Aktiv 105 / 117 40% 1 01.08.2026 -